SBOSBO TOS / ENTC
Speedbird OnlineSpeedbird Online TOS / ENTC

Tromsø Airport,
20:07 3°C

Location Tromso, Norway
Latitude: 69.68329620361328
Longitude: 18.918899536132812
Local Time 20:07 on 23 Feb 2024
UTC +1 hours (Europe/Oslo)
Currency £1 equals NOK 13.36
METAR ENTC 231850Z 20018KT CAVOK 03/M02 Q0984 NOSIG BECMG 21008KT RMK WIND 2600FT 17037KT
TAF TAF AMD ENTC 231840Z 2318/2418 22008KT CAVOK PROB40 TEMPO 2318/2321 23018KT BECMG 2400/2403 19020G30KT TEMPO 2402/2418 19015KT
Weather As Of 23 Feb 2024 20:07
Description Clear sky
Wind 33 km/h from South (200°)
Cloud Cover 0%
Precipitation Rain: none, Snow: none
Sunrise 07:41
Sunset 16:14
Rotations During the last 90 days there were
9 flights to RVN
Web Airport Website | Wikipedia
Codes IATA: TOS
ICAO: ENTC
Altitude 9 Meter / 31 Feet
Distance 2,245 KM / 1,395 Miles
from London.
Runways
RunwayLength (m)Surface
182392Asphalt
362392Asphalt
Radio
TypeDescriptionFrequency
APPAPP123.75
ATISATIS126.125
TWRTWR118.3
Live ATC



Support Speedbird Online

© 2017-2024 Speedbird Online